Oslo Bulk 1 — 9V8766 — position and weather

sailwx.info

Track history (hours):
 
Tides and Currents Weather Stations Pressure Air Temp Water Temp Dewpoint Dewpoint Depression Visibility Wind Speed Wind Dir Waves Ship Positions

Oslo Bulk 1

Last reported at 2015-Mar-01 22:10 UTC. Time now 2015-Mar-03 20:20 UTC.
Position S 31°52' E 115°27'.

Length 108 m; draft 5.7 m.

Type: Ship. MMSI: 564010000.

Date/timePositionNaut miles runAvg speedWind from/ knotsBaromVisibWave heightAir tempDewpointWater temp
2015-Mar-01 22:10S 31°52' E 115°27'610.5
2015-Mar-01 21:33S 31°55' E 115°34'10 9.9
2015-Mar-01 20:33S 32°02' E 115°41'8 8.4
2015-Mar-01 19:33S 32°11' E 115°42'1 0.5
2015-Mar-01 18:31S 32°11' E 115°41'0 0.0
2015-Mar-01 17:31S 32°11' E 115°41'0 0.0
2015-Mar-01 16:28S 32°11' E 115°41'0 0.0
2015-Mar-01 15:31S 32°11' E 115°41'0 0.0
2015-Mar-01 14:31S 32°11' E 115°41'0 0.0
2015-Mar-01 13:31S 32°11' E 115°41'0 0.1
2015-Mar-01 12:31S 32°11' E 115°42'0 0.1
2015-Mar-01 11:31S 32°11' E 115°42'0 0.0
2015-Mar-01 10:31S 32°11' E 115°42'0 0.0
2015-Mar-01 09:31S 32°11' E 115°42'0 0.0
2015-Mar-01 08:31S 32°11' E 115°42'5 3.2
2015-Mar-01 07:07S 32°14' E 115°45'0 0.3
2015-Mar-01 06:31S 32°14' E 115°45'0 0.0
2015-Mar-01 05:31S 32°14' E 115°45'0 0.0
2015-Mar-01 04:31S 32°14' E 115°45'0 0.0
2015-Mar-01 03:31S 32°14' E 115°45'0 0.0
2015-Mar-01 02:33S 32°14' E 115°45'0 0.0
2015-Mar-01 01:31S 32°14' E 115°45'0 0.0
2015-Mar-01 00:31S 32°14' E 115°45'0 0.0
2015-Feb-28 23:31S 32°14' E 115°45'0 0.0
2015-Feb-28 22:31S 32°14' E 115°45'0 0.0
2015-Feb-28 21:34S 32°14' E 115°45'0 0.0
2015-Feb-28 20:30S 32°14' E 115°45'0 0.0
2015-Feb-28 19:31S 32°14' E 115°45'0 0.0
2015-Feb-28 18:31S 32°14' E 115°45'0 0.0
2015-Feb-28 17:31S 32°14' E 115°45'0 0.0
2015-Feb-28 16:34S 32°14' E 115°45'0 0.0
2015-Feb-28 15:34S 32°14' E 115°45'0 0.0
2015-Feb-28 14:33S 32°14' E 115°45'0 0.0
2015-Feb-28 13:34S 32°14' E 115°45'0 0.0
2015-Feb-28 12:30S 32°14' E 115°45'0 0.0
2015-Feb-28 11:34S 32°14' E 115°45'0 0.0
2015-Feb-28 10:33S 32°14' E 115°45'0 0.0
2015-Feb-28 09:33S 32°14' E 115°45'0 0.0
2015-Feb-28 08:30S 32°14' E 115°45'0 0.0
2015-Feb-28 07:30S 32°14' E 115°45'0 0.0
2015-Feb-28 06:31S 32°14' E 115°45'0 0.0
2015-Feb-28 05:33S 32°14' E 115°45'0 0.0
2015-Feb-28 04:33S 32°14' E 115°45'0 0.0
2015-Feb-28 03:33S 32°14' E 115°45'0 0.0
2015-Feb-28 02:33S 32°14' E 115°45'0 0.0
2015-Feb-28 01:34S 32°14' E 115°45'0 0.0
2015-Feb-28 00:33S 32°14' E 115°45'0 0.0
2015-Feb-27 23:33S 32°14' E 115°45'0 0.0
2015-Feb-27 22:33S 32°14' E 115°45'0 0.0
2015-Feb-27 21:33S 32°14' E 115°45'0 0.0
2015-Feb-27 20:30S 32°14' E 115°45'0 0.0
2015-Feb-27 19:30S 32°14' E 115°45'0 0.0
2015-Feb-27 18:30S 32°14' E 115°45'0 0.0
2015-Feb-27 17:33S 32°14' E 115°45'0 0.0
2015-Feb-27 16:30S 32°14' E 115°45'0 0.0
2015-Feb-27 15:33S 32°14' E 115°45'0 0.0
2015-Feb-27 14:30S 32°14' E 115°45'0 0.0
2015-Feb-27 13:30S 32°14' E 115°45'0 0.0
2015-Feb-27 12:30S 32°14' E 115°45'0 0.0
2015-Feb-27 11:30S 32°14' E 115°45'0 0.0
2015-Feb-27 10:30S 32°14' E 115°45'0 0.0
2015-Feb-27 09:30S 32°14' E 115°45'0 0.0
2015-Feb-27 08:30S 32°14' E 115°45'0 0.0
2015-Feb-27 07:24S 32°14' E 115°45'0 0.0
2015-Feb-27 06:30S 32°14' E 115°45'0 0.0
2015-Feb-27 05:33S 32°14' E 115°45'0 0.0
2015-Feb-27 04:33S 32°14' E 115°45'0 0.0
2015-Feb-27 03:33S 32°14' E 115°45'0 0.0
2015-Feb-27 02:33S 32°14' E 115°45'0 0.0
2015-Feb-27 01:33S 32°14' E 115°45'0 0.0
2015-Feb-27 00:33S 32°14' E 115°45'0 0.0
2015-Feb-26 23:30S 32°14' E 115°45'0 0.0
2015-Feb-26 22:33S 32°14' E 115°45'5 5.1
2015-Feb-26 21:34S 32°10' E 115°43'9 8.7
2015-Feb-26 20:33S 32°01' E 115°42'6 6.4
2015-Feb-26 19:33S 31°56' E 115°38'6 5.0
2015-Feb-26 18:26S 31°53' E 115°32'41 6.6
2015-Feb-26 12:13S 31°22' E 114°60'16 9.2
2015-Feb-26 10:31S 31°09' E 114°51'12 9.8
2015-Feb-26 09:16S 30°58' E 114°44'11 9.5
2015-Feb-26 08:04S 30°48' E 114°38'29 9.8
2015-Feb-26 05:05S 30°23' E 114°21'  
Track history (hours):
 
Tides and Currents Weather Stations Pressure Air Temp Water Temp Dewpoint Dewpoint Depression Visibility Wind Speed Wind Dir Waves Ship Positions

Oslo Bulk 1

Last reported at 2015-Mar-01 22:10 UTC. Time now 2015-Mar-03 20:20 UTC.
Position S 31°52' E 115°27'.

Length 108 m; draft 5.7 m.

Type: Ship. MMSI: 564010000.

Date/timePositionNaut miles runAvg speedWind from/ knotsBaromVisibWave heightAir tempDewpointWater temp
2015-Mar-01 22:10S 31°52' E 115°27'610.5
2015-Mar-01 21:33S 31°55' E 115°34'10 9.9
2015-Mar-01 20:33S 32°02' E 115°41'8 8.4
2015-Mar-01 19:33S 32°11' E 115°42'1 0.5
2015-Mar-01 18:31S 32°11' E 115°41'0 0.0
2015-Mar-01 17:31S 32°11' E 115°41'0 0.0
2015-Mar-01 16:28S 32°11' E 115°41'0 0.0
2015-Mar-01 15:31S 32°11' E 115°41'0 0.0
2015-Mar-01 14:31S 32°11' E 115°41'0 0.0
2015-Mar-01 13:31S 32°11' E 115°41'0 0.1
2015-Mar-01 12:31S 32°11' E 115°42'0 0.1
2015-Mar-01 11:31S 32°11' E 115°42'0 0.0
2015-Mar-01 10:31S 32°11' E 115°42'0 0.0
2015-Mar-01 09:31S 32°11' E 115°42'0 0.0
2015-Mar-01 08:31S 32°11' E 115°42'5 3.2
2015-Mar-01 07:07S 32°14' E 115°45'0 0.3
2015-Mar-01 06:31S 32°14' E 115°45'0 0.0
2015-Mar-01 05:31S 32°14' E 115°45'0 0.0
2015-Mar-01 04:31S 32°14' E 115°45'0 0.0
2015-Mar-01 03:31S 32°14' E 115°45'0 0.0
2015-Mar-01 02:33S 32°14' E 115°45'0 0.0
2015-Mar-01 01:31S 32°14' E 115°45'0 0.0
2015-Mar-01 00:31S 32°14' E 115°45'0 0.0
2015-Feb-28 23:31S 32°14' E 115°45'0 0.0
2015-Feb-28 22:31S 32°14' E 115°45'0 0.0
2015-Feb-28 21:34S 32°14' E 115°45'0 0.0
2015-Feb-28 20:30S 32°14' E 115°45'0 0.0
2015-Feb-28 19:31S 32°14' E 115°45'0 0.0
2015-Feb-28 18:31S 32°14' E 115°45'0 0.0
2015-Feb-28 17:31S 32°14' E 115°45'0 0.0
2015-Feb-28 16:34S 32°14' E 115°45'0 0.0
2015-Feb-28 15:34S 32°14' E 115°45'0 0.0
2015-Feb-28 14:33S 32°14' E 115°45'0 0.0
2015-Feb-28 13:34S 32°14' E 115°45'0 0.0
2015-Feb-28 12:30S 32°14' E 115°45'0 0.0
2015-Feb-28 11:34S 32°14' E 115°45'0 0.0
2015-Feb-28 10:33S 32°14' E 115°45'0 0.0
2015-Feb-28 09:33S 32°14' E 115°45'0 0.0
2015-Feb-28 08:30S 32°14' E 115°45'0 0.0
2015-Feb-28 07:30S 32°14' E 115°45'0 0.0
2015-Feb-28 06:31S 32°14' E 115°45'0 0.0
2015-Feb-28 05:33S 32°14' E 115°45'0 0.0
2015-Feb-28 04:33S 32°14' E 115°45'0 0.0
2015-Feb-28 03:33S 32°14' E 115°45'0 0.0
2015-Feb-28 02:33S 32°14' E 115°45'0 0.0
2015-Feb-28 01:34S 32°14' E 115°45'0 0.0
2015-Feb-28 00:33S 32°14' E 115°45'0 0.0
2015-Feb-27 23:33S 32°14' E 115°45'0 0.0
2015-Feb-27 22:33S 32°14' E 115°45'0 0.0
2015-Feb-27 21:33S 32°14' E 115°45'0 0.0
2015-Feb-27 20:30S 32°14' E 115°45'0 0.0
2015-Feb-27 19:30S 32°14' E 115°45'0 0.0
2015-Feb-27 18:30S 32°14' E 115°45'0 0.0
2015-Feb-27 17:33S 32°14' E 115°45'0 0.0
2015-Feb-27 16:30S 32°14' E 115°45'0 0.0
2015-Feb-27 15:33S 32°14' E 115°45'0 0.0
2015-Feb-27 14:30S 32°14' E 115°45'0 0.0
2015-Feb-27 13:30S 32°14' E 115°45'0 0.0
2015-Feb-27 12:30S 32°14' E 115°45'0 0.0
2015-Feb-27 11:30S 32°14' E 115°45'0 0.0
2015-Feb-27 10:30S 32°14' E 115°45'0 0.0
2015-Feb-27 09:30S 32°14' E 115°45'0 0.0
2015-Feb-27 08:30S 32°14' E 115°45'0 0.0
2015-Feb-27 07:24S 32°14' E 115°45'0 0.0
2015-Feb-27 06:30S 32°14' E 115°45'0 0.0
2015-Feb-27 05:33S 32°14' E 115°45'0 0.0
2015-Feb-27 04:33S 32°14' E 115°45'0 0.0
2015-Feb-27 03:33S 32°14' E 115°45'0 0.0
2015-Feb-27 02:33S 32°14' E 115°45'0 0.0
2015-Feb-27 01:33S 32°14' E 115°45'0 0.0
2015-Feb-27 00:33S 32°14' E 115°45'0 0.0
2015-Feb-26 23:30S 32°14' E 115°45'0 0.0
2015-Feb-26 22:33S 32°14' E 115°45'5 5.1
2015-Feb-26 21:34S 32°10' E 115°43'9 8.7
2015-Feb-26 20:33S 32°01' E 115°42'6 6.4
2015-Feb-26 19:33S 31°56' E 115°38'6 5.0
2015-Feb-26 18:26S 31°53' E 115°32'41 6.6
2015-Feb-26 12:13S 31°22' E 114°60'16 9.2
2015-Feb-26 10:31S 31°09' E 114°51'12 9.8
2015-Feb-26 09:16S 30°58' E 114°44'11 9.5
2015-Feb-26 08:04S 30°48' E 114°38'29 9.8
2015-Feb-26 05:05S 30°23' E 114°21'  

Dump ship's entire track history